createdAt,value
2017-12-29T00:00:47.325Z,94.04
2017-12-29T00:01:47.319Z,92.80
2017-12-29T00:02:47.304Z,92.33
2017-12-29T00:03:47.294Z,92.90
2017-12-29T00:04:47.281Z,91.95
2017-12-29T00:05:47.270Z,92.52
2017-12-29T00:06:47.257Z,91.38
2017-12-29T00:07:47.240Z,91.57
2017-12-29T00:08:47.237Z,92.33
2017-12-29T00:09:47.224Z,93.46
2017-12-29T00:10:47.210Z,93.94
2017-12-29T00:11:47.200Z,93.46
2017-12-29T00:12:47.185Z,93.46
2017-12-29T00:13:47.174Z,94.70
2017-12-29T00:14:47.161Z,92.33
2017-12-29T00:15:47.150Z,92.80
2017-12-29T00:16:47.137Z,92.90
2017-12-29T00:17:47.127Z,91.95
2017-12-29T00:18:47.114Z,94.04
2017-12-29T00:19:47.103Z,94.89
2017-12-29T00:20:47.093Z,94.32
2017-12-29T00:21:47.077Z,92.52
2017-12-29T00:22:47.067Z,92.33
2017-12-29T00:23:47.062Z,91.76
2017-12-29T00:24:47.060Z,91.57
2017-12-29T00:25:47.055Z,93.27
2017-12-29T00:26:47.021Z,93.84
2017-12-29T00:27:47.007Z,91.86
2017-12-29T00:28:46.999Z,92.14
2017-12-29T00:29:46.996Z,94.04
2017-12-29T00:30:46.978Z,93.37
2017-12-29T00:31:46.965Z,91.67
2017-12-29T00:32:46.952Z,92.52
2017-12-29T00:33:46.937Z,91.95
2017-12-29T00:34:46.923Z,91.38
2017-12-29T00:35:46.916Z,92.90
2017-12-29T00:36:46.905Z,91.86
2017-12-29T00:37:46.898Z,93.08
2017-12-29T00:38:46.878Z,92.61
2017-12-29T00:39:46.864Z,92.43
2017-12-29T00:40:46.857Z,92.14
2017-12-29T00:41:46.845Z,93.08
2017-12-29T00:42:46.829Z,93.27
2017-12-29T00:43:46.820Z,92.61
2017-12-29T00:44:46.806Z,92.33
2017-12-29T00:45:46.797Z,92.05
2017-12-29T00:46:46.790Z,92.43
2017-12-29T00:47:46.773Z,92.61
2017-12-29T00:48:46.768Z,92.14
2017-12-29T00:49:46.748Z,91.95
2017-12-29T00:50:46.735Z,92.52
2017-12-29T00:51:46.726Z,92.66
2017-12-29T00:52:46.711Z,94.13
2017-12-29T00:53:46.700Z,90.86
2017-12-29T00:54:46.690Z,94.04
2017-12-29T00:55:46.678Z,93.84
2017-12-29T00:56:46.665Z,91.19
2017-12-29T00:57:46.652Z,93.32
2017-12-29T00:58:46.640Z,92.90
2017-12-29T00:59:46.623Z,92.24
2017-12-29T01:00:46.620Z,94.04
2017-12-29T01:01:46.606Z,91.00
2017-12-29T01:02:46.588Z,92.43
2017-12-29T01:03:46.579Z,93.18
2017-12-29T01:04:46.570Z,91.95
2017-12-29T01:05:46.557Z,93.42
2017-12-29T01:06:46.540Z,93.23
2017-12-29T01:07:46.533Z,93.08
2017-12-29T01:08:46.542Z,92.71
2017-12-29T01:09:46.511Z,93.65
2017-12-29T01:10:46.495Z,92.80
2017-12-29T01:11:46.484Z,91.10
2017-12-29T01:12:46.471Z,92.85
2017-12-29T01:13:46.461Z,91.81
2017-12-29T01:14:46.447Z,92.71
2017-12-29T01:15:46.442Z,91.53
2017-12-29T01:16:46.432Z,91.81
2017-12-29T01:17:46.411Z,92.47
2017-12-29T01:18:46.396Z,92.99
2017-12-29T01:19:46.387Z,92.19
2017-12-29T01:20:46.375Z,94.04
2017-12-29T01:21:46.364Z,92.47
2017-12-29T01:22:46.355Z,92.43
2017-12-29T01:23:46.358Z,92.00
2017-12-29T01:24:46.325Z,92.76
2017-12-29T01:25:46.312Z,93.32
2017-12-29T01:26:46.307Z,94.13
2017-12-29T01:27:46.292Z,92.33
2017-12-29T01:28:46.282Z,93.13
2017-12-29T01:29:46.268Z,91.38
2017-12-29T01:30:46.254Z,93.27
2017-12-29T01:31:46.246Z,92.19
2017-12-29T01:32:46.231Z,92.76
2017-12-29T01:33:46.226Z,93.99
2017-12-29T01:34:46.207Z,94.18
2017-12-29T01:35:46.196Z,93.61
2017-12-29T01:36:52.990Z,93.13
2017-12-29T01:37:46.175Z,92.29
2017-12-29T01:38:46.169Z,92.10
2017-12-29T01:39:46.172Z,93.42
2017-12-29T01:40:46.133Z,93.80
2017-12-29T01:41:46.127Z,93.23
2017-12-29T01:42:46.112Z,92.66
2017-12-29T01:43:46.100Z,92.57
2017-12-29T01:44:46.085Z,91.72
2017-12-29T01:45:46.075Z,94.18
2017-12-29T01:46:46.065Z,93.32
2017-12-29T01:47:46.047Z,93.42
2017-12-29T01:48:46.041Z,92.38
2017-12-29T01:49:46.027Z,92.85
2017-12-29T01:50:46.020Z,91.34
2017-12-29T01:51:46.003Z,94.46
2017-12-29T01:52:45.990Z,92.85
2017-12-29T01:53:45.980Z,92.85
2017-12-29T01:54:45.964Z,92.94
2017-12-29T01:55:45.954Z,94.18
2017-12-29T01:56:45.947Z,93.23
2017-12-29T01:57:45.934Z,92.85
2017-12-29T01:58:45.916Z,92.66
2017-12-29T01:59:45.906Z,91.34
2017-12-29T02:00:45.895Z,94.46
2017-12-29T02:01:45.880Z,92.94
2017-12-29T02:02:45.873Z,92.66
2017-12-29T02:03:45.857Z,94.08
2017-12-29T02:04:45.844Z,92.76
2017-12-29T02:05:45.870Z,93.99
2017-12-29T02:06:45.821Z,92.19
2017-12-29T02:07:45.805Z,93.61
2017-12-29T02:08:45.791Z,93.99
2017-12-29T02:09:45.783Z,93.13
2017-12-29T02:10:45.771Z,91.24
2017-12-29T02:11:45.759Z,92.19
2017-12-29T02:12:45.747Z,92.29
2017-12-29T02:13:45.735Z,92.38
2017-12-29T02:14:45.725Z,92.19
2017-12-29T02:15:45.706Z,91.34
2017-12-29T02:16:45.694Z,93.80
2017-12-29T02:17:45.684Z,93.32
2017-12-29T02:18:45.670Z,92.38
2017-12-29T02:19:45.656Z,93.42
2017-12-29T02:20:45.652Z,91.81
2017-12-29T02:21:45.636Z,92.38
2017-12-29T02:22:45.620Z,92.19
2017-12-29T02:23:45.608Z,92.10
2017-12-29T02:24:45.597Z,91.62
2017-12-29T02:25:45.584Z,92.19
2017-12-29T02:26:45.573Z,91.91
2017-12-29T02:27:45.619Z,92.38
2017-12-29T02:28:45.547Z,92.19
2017-12-29T02:29:45.534Z,92.66
2017-12-29T02:30:45.519Z,92.19
2017-12-29T02:31:45.509Z,91.24
2017-12-29T02:32:45.493Z,91.15
2017-12-29T02:33:45.484Z,93.32
2017-12-29T02:34:45.470Z,92.38
2017-12-29T02:35:45.460Z,91.15
2017-12-29T02:36:45.448Z,92.94
2017-12-29T02:37:45.431Z,92.19
2017-12-29T02:38:45.423Z,92.47
2017-12-29T02:39:45.406Z,91.34
2017-12-29T02:40:45.395Z,92.47
2017-12-29T02:41:45.385Z,92.76
2017-12-29T02:42:45.370Z,92.29
2017-12-29T02:43:45.357Z,91.81
2017-12-29T02:44:45.345Z,92.85
2017-12-29T02:45:45.329Z,92.19
2017-12-29T02:46:45.319Z,92.47
2017-12-29T02:47:45.308Z,91.62
2017-12-29T02:48:45.296Z,91.34
2017-12-29T02:49:45.283Z,93.13
2017-12-29T02:50:45.268Z,92.76
2017-12-29T02:51:45.256Z,91.34
2017-12-29T02:52:45.243Z,91.58
2017-12-29T02:53:45.231Z,91.39
2017-12-29T02:54:45.217Z,91.29
2017-12-29T02:55:45.210Z,91.39
2017-12-29T02:56:45.190Z,91.39
2017-12-29T02:57:45.181Z,91.10
2017-12-29T02:58:45.161Z,91.29
2017-12-29T02:59:45.154Z,91.01
2017-12-29T03:00:45.142Z,91.96
2017-12-29T03:01:45.129Z,91.39
2017-12-29T03:02:45.116Z,91.48
2017-12-29T03:03:45.107Z,91.10
2017-12-29T03:04:45.096Z,90.63
2017-12-29T03:05:45.078Z,91.96
2017-12-29T03:06:45.064Z,91.86
2017-12-29T03:07:45.054Z,92.14
2017-12-29T03:08:45.043Z,91.67
2017-12-29T03:09:45.027Z,90.63
2017-12-29T03:10:45.015Z,91.10
2017-12-29T03:11:45.004Z,91.10
2017-12-29T03:12:44.988Z,91.39
2017-12-29T03:13:44.982Z,91.10
2017-12-29T03:14:44.962Z,91.39
2017-12-29T03:15:44.953Z,90.25
2017-12-29T03:16:44.934Z,90.72
2017-12-29T03:17:44.924Z,92.61
2017-12-29T03:18:44.913Z,91.29
2017-12-29T03:19:44.908Z,90.72
2017-12-29T03:20:44.882Z,91.58
2017-12-29T03:21:44.879Z,90.91
2017-12-29T03:22:44.859Z,90.16
2017-12-29T03:23:44.847Z,91.01
2017-12-29T03:24:44.837Z,91.01
2017-12-29T03:25:44.820Z,91.01
2017-12-29T03:26:44.807Z,90.91
2017-12-29T03:27:44.795Z,91.58
2017-12-29T03:28:44.782Z,91.39
2017-12-29T03:29:44.788Z,91.67
2017-12-29T03:30:44.755Z,91.29
2017-12-29T03:31:44.747Z,90.91
2017-12-29T03:32:44.732Z,90.82
2017-12-29T03:33:44.717Z,90.53
2017-12-29T03:34:44.703Z,91.39
2017-12-29T03:35:44.691Z,90.91
2017-12-29T03:36:44.680Z,90.91
2017-12-29T03:37:44.667Z,91.01
2017-12-29T03:38:44.658Z,91.01
2017-12-29T03:39:44.640Z,91.67
2017-12-29T03:40:44.629Z,90.63
2017-12-29T03:41:44.610Z,91.10
2017-12-29T03:42:44.606Z,90.72
2017-12-29T03:43:44.590Z,91.10
2017-12-29T03:44:44.578Z,90.91
2017-12-29T03:45:44.560Z,91.39
2017-12-29T03:46:44.548Z,90.63
2017-12-29T03:47:44.536Z,90.44
2017-12-29T03:48:44.531Z,90.25
2017-12-29T03:49:44.509Z,90.91
2017-12-29T03:50:44.494Z,91.01
2017-12-29T03:51:44.486Z,90.63
2017-12-29T03:52:44.473Z,91.01
2017-12-29T03:53:44.461Z,90.34
2017-12-29T03:54:44.446Z,90.53
2017-12-29T03:55:44.434Z,90.63
2017-12-29T03:56:44.420Z,89.78
2017-12-29T03:57:44.417Z,90.44
2017-12-29T03:58:44.388Z,91.39
2017-12-29T03:59:44.382Z,90.82
2017-12-29T04:00:44.369Z,90.91
2017-12-29T04:01:44.354Z,90.63
2017-12-29T04:02:44.345Z,91.48
2017-12-29T04:03:44.333Z,90.63
2017-12-29T04:04:44.318Z,90.44
2017-12-29T04:05:44.303Z,90.34
2017-12-29T04:06:44.291Z,90.34
2017-12-29T04:07:44.276Z,91.20
2017-12-29T04:08:44.265Z,91.10
2017-12-29T04:09:44.253Z,90.34
2017-12-29T04:10:44.238Z,91.39
2017-12-29T04:11:44.227Z,91.10
2017-12-29T04:12:44.221Z,90.34
2017-12-29T04:13:44.202Z,90.16
2017-12-29T04:14:44.186Z,91.39
2017-12-29T04:15:44.170Z,91.48
2017-12-29T04:16:44.163Z,91.86
2017-12-29T04:17:44.183Z,90.82
2017-12-29T04:18:44.138Z,90.63
2017-12-29T04:19:44.123Z,90.34
2017-12-29T04:20:44.109Z,90.63
2017-12-29T04:21:44.099Z,91.10
2017-12-29T04:22:44.084Z,90.72
2017-12-29T04:23:44.071Z,90.06
2017-12-29T04:24:44.057Z,90.25
2017-12-29T04:25:44.045Z,91.10
2017-12-29T04:26:44.032Z,90.72
2017-12-29T04:27:44.019Z,90.82
2017-12-29T04:28:44.005Z,90.53
2017-12-29T04:29:43.998Z,91.01
2017-12-29T04:30:43.979Z,90.63
2017-12-29T04:31:43.962Z,90.91
2017-12-29T04:32:43.952Z,90.63
2017-12-29T04:33:43.940Z,90.63
2017-12-29T04:34:43.926Z,90.25
2017-12-29T04:35:43.918Z,90.72
2017-12-29T04:36:43.902Z,91.01
2017-12-29T04:37:43.888Z,91.01
2017-12-29T04:38:43.885Z,90.25
2017-12-29T04:39:43.859Z,90.25
2017-12-29T04:40:43.849Z,90.63
2017-12-29T04:41:43.837Z,90.91
2017-12-29T04:42:43.822Z,91.29
2017-12-29T04:43:43.807Z,90.63
2017-12-29T04:44:43.796Z,90.53
2017-12-29T04:45:43.782Z,90.16
2017-12-29T04:46:43.770Z,90.25
2017-12-29T04:47:43.755Z,90.63
2017-12-29T04:48:43.749Z,90.91
2017-12-29T04:49:43.730Z,90.72
2017-12-29T04:50:43.722Z,91.10
2017-12-29T04:51:43.713Z,90.44
2017-12-29T04:52:43.698Z,90.53
2017-12-29T04:53:43.680Z,90.25
2017-12-29T04:54:43.664Z,90.63
2017-12-29T04:55:43.653Z,90.82
2017-12-29T04:56:43.639Z,90.63
2017-12-29T04:57:43.628Z,90.53
2017-12-29T04:58:43.610Z,90.34
2017-12-29T04:59:43.599Z,90.72
2017-12-29T05:00:43.586Z,90.82
2017-12-29T05:01:43.574Z,90.82
2017-12-29T05:02:43.557Z,91.29
2017-12-29T05:03:43.549Z,91.01
2017-12-29T05:04:43.539Z,90.72
2017-12-29T05:05:43.524Z,91.20
2017-12-29T05:06:43.509Z,91.10
2017-12-29T05:07:43.493Z,91.29
2017-12-29T05:08:43.481Z,90.72
2017-12-29T05:09:43.470Z,90.91
2017-12-29T05:10:43.457Z,91.01
2017-12-29T05:11:43.445Z,91.01
2017-12-29T05:12:43.431Z,90.16
2017-12-29T05:13:43.420Z,90.63
2017-12-29T05:14:43.400Z,90.63
2017-12-29T05:15:43.395Z,90.91
2017-12-29T05:16:43.379Z,90.72
2017-12-29T05:17:43.366Z,91.20
2017-12-29T05:18:43.349Z,91.01
2017-12-29T05:19:43.340Z,90.63
2017-12-29T05:20:43.325Z,90.63
2017-12-29T05:21:43.343Z,90.72
2017-12-29T05:22:43.300Z,90.91
2017-12-29T05:23:43.287Z,91.01
2017-12-29T05:24:43.273Z,90.16
2017-12-29T05:25:43.261Z,91.01
2017-12-29T05:26:43.246Z,90.25
2017-12-29T05:27:43.234Z,90.68
2017-12-29T05:28:43.220Z,90.96
2017-12-29T05:29:43.206Z,90.58
2017-12-29T05:30:43.198Z,90.11
2017-12-29T05:31:43.181Z,90.20
2017-12-29T05:32:43.170Z,90.11
2017-12-29T05:33:43.156Z,90.58
2017-12-29T05:34:43.158Z,90.58
2017-12-29T05:35:43.127Z,89.92
2017-12-29T05:36:43.112Z,90.20
2017-12-29T05:37:43.103Z,90.39
2017-12-29T05:38:43.095Z,90.20
2017-12-29T05:39:43.075Z,90.20
2017-12-29T05:40:43.062Z,89.92
2017-12-29T05:41:43.053Z,89.92
2017-12-29T05:42:43.036Z,90.11
2017-12-29T05:43:43.021Z,90.11
2017-12-29T05:44:43.010Z,90.39
2017-12-29T05:45:42.998Z,89.92
2017-12-29T05:46:42.982Z,90.11
2017-12-29T05:47:42.971Z,90.20
2017-12-29T05:48:42.964Z,90.11
2017-12-29T05:49:42.945Z,90.20
2017-12-29T05:50:42.930Z,89.73
2017-12-29T05:51:42.917Z,89.64
2017-12-29T05:52:42.906Z,89.83
2017-12-29T05:53:42.897Z,90.39
2017-12-29T05:54:42.879Z,89.64
2017-12-29T05:55:42.863Z,89.92
2017-12-29T05:56:42.850Z,90.11
2017-12-29T05:57:42.837Z,89.45
2017-12-29T05:58:42.826Z,89.26
2017-12-29T05:59:42.815Z,89.83
2017-12-29T06:00:42.800Z,89.54
2017-12-29T06:01:42.787Z,89.92
2017-12-29T06:02:42.785Z,89.54
2017-12-29T06:03:42.783Z,89.73
2017-12-29T06:04:42.745Z,90.11
2017-12-29T06:05:42.732Z,90.01
2017-12-29T06:06:42.719Z,89.73
2017-12-29T06:07:42.704Z,89.64
2017-12-29T06:08:42.689Z,89.92
2017-12-29T06:09:42.682Z,89.64
2017-12-29T06:10:42.664Z,90.01
2017-12-29T06:11:42.654Z,90.11
2017-12-29T06:12:42.635Z,90.30
2017-12-29T06:13:42.628Z,89.92
2017-12-29T06:14:42.618Z,90.01
2017-12-29T06:15:42.601Z,89.83
2017-12-29T06:16:42.586Z,90.11
2017-12-29T06:17:42.596Z,90.11
2017-12-29T06:18:42.561Z,90.01
2017-12-29T06:19:42.548Z,89.64
2017-12-29T06:20:42.539Z,89.92
2017-12-29T06:21:42.519Z,89.64
2017-12-29T06:22:42.506Z,89.64
2017-12-29T06:23:42.493Z,90.20
2017-12-29T06:24:42.481Z,90.20
2017-12-29T06:25:42.468Z,89.92
2017-12-29T06:26:42.450Z,89.64
2017-12-29T06:27:42.439Z,89.45
2017-12-29T06:28:42.427Z,89.64
2017-12-29T06:29:42.415Z,89.64
2017-12-29T06:30:42.400Z,90.01
2017-12-29T06:31:42.387Z,89.45
2017-12-29T06:32:42.372Z,90.01
2017-12-29T06:33:42.362Z,89.54
2017-12-29T06:34:42.347Z,89.36
2017-12-29T06:35:42.330Z,89.64
2017-12-29T06:36:42.320Z,89.73
2017-12-29T06:37:42.331Z,89.26
2017-12-29T06:38:42.293Z,89.54
2017-12-29T06:39:42.279Z,89.64
2017-12-29T06:40:42.278Z,89.54
2017-12-29T06:41:42.254Z,89.54
2017-12-29T06:42:42.242Z,90.01
2017-12-29T06:43:42.227Z,89.92
2017-12-29T06:44:42.214Z,89.45
2017-12-29T06:45:42.200Z,89.54
2017-12-29T06:46:42.185Z,89.73
2017-12-29T06:47:42.170Z,89.26
2017-12-29T06:48:42.160Z,89.17
2017-12-29T06:49:42.146Z,89.64
2017-12-29T06:50:42.143Z,89.73
2017-12-29T06:51:42.126Z,89.54
2017-12-29T06:52:42.106Z,90.11
2017-12-29T06:53:42.092Z,90.49
2017-12-29T06:54:42.075Z,90.01
2017-12-29T06:55:42.065Z,90.11
2017-12-29T06:56:42.050Z,90.11
2017-12-29T06:57:42.044Z,89.92
2017-12-29T06:58:42.022Z,89.45
2017-12-29T06:59:42.012Z,89.64
2017-12-29T07:00:41.999Z,89.54
2017-12-29T07:01:41.986Z,90.20
2017-12-29T07:02:41.971Z,90.01
2017-12-29T07:03:41.960Z,89.83
2017-12-29T07:04:41.946Z,89.83
2017-12-29T07:05:41.934Z,89.92
2017-12-29T07:06:41.921Z,90.11
2017-12-29T07:07:41.905Z,90.01
2017-12-29T07:08:41.898Z,90.30
2017-12-29T07:09:41.874Z,89.73
2017-12-29T07:10:41.861Z,90.49
2017-12-29T07:11:41.851Z,89.92
2017-12-29T07:12:41.838Z,89.73
2017-12-29T07:13:41.825Z,89.73
2017-12-29T07:14:41.811Z,89.92
2017-12-29T07:15:41.796Z,90.01
2017-12-29T07:16:41.779Z,89.83
2017-12-29T07:17:41.771Z,90.01
2017-12-29T07:18:41.756Z,89.92
2017-12-29T07:19:41.744Z,89.83
2017-12-29T07:20:41.728Z,89.64
2017-12-29T07:21:41.716Z,89.54
2017-12-29T07:22:41.702Z,90.20
2017-12-29T07:23:41.685Z,89.73
2017-12-29T07:24:41.679Z,89.83
2017-12-29T07:25:41.662Z,89.83
2017-12-29T07:26:41.648Z,89.45
2017-12-29T07:27:41.633Z,89.92
2017-12-29T07:28:41.623Z,90.20
2017-12-29T07:29:41.610Z,89.45
2017-12-29T07:30:41.592Z,89.73
2017-12-29T07:31:41.583Z,89.73
2017-12-29T07:32:41.570Z,89.73
2017-12-29T07:33:41.555Z,89.26
2017-12-29T07:34:41.540Z,89.64
2017-12-29T07:35:41.532Z,89.92
2017-12-29T07:36:41.511Z,89.54
2017-12-29T07:37:41.500Z,89.54
2017-12-29T07:38:41.487Z,89.36
2017-12-29T07:39:41.472Z,89.45
2017-12-29T07:40:41.475Z,89.64
2017-12-29T07:41:41.446Z,89.64
2017-12-29T07:42:41.432Z,89.92
2017-12-29T07:43:41.421Z,89.83
2017-12-29T07:44:41.406Z,89.45
2017-12-29T07:45:41.397Z,89.54
2017-12-29T07:46:41.380Z,89.17
2017-12-29T07:47:41.365Z,89.45
2017-12-29T07:48:41.354Z,89.83
2017-12-29T07:49:41.334Z,89.73
2017-12-29T07:50:41.327Z,89.54
2017-12-29T07:51:41.327Z,89.54
2017-12-29T07:52:41.294Z,89.54
2017-12-29T07:53:41.285Z,88.98
2017-12-29T07:54:41.268Z,89.26
2017-12-29T07:55:41.257Z,89.54
2017-12-29T07:56:41.244Z,89.36
2017-12-29T07:57:41.233Z,89.54
2017-12-29T07:58:41.217Z,89.64
2017-12-29T07:59:41.245Z,89.45
2017-12-29T08:00:41.190Z,89.45
2017-12-29T08:01:41.178Z,89.54
2017-12-29T08:02:41.214Z,89.83
2017-12-29T08:03:41.150Z,89.64
2017-12-29T08:04:41.140Z,89.92
2017-12-29T08:05:41.124Z,89.45
2017-12-29T08:06:41.106Z,90.11
2017-12-29T08:07:41.097Z,90.49
2017-12-29T08:08:41.082Z,90.01
2017-12-29T08:09:41.070Z,90.11
2017-12-29T08:10:41.056Z,90.20
2017-12-29T08:11:41.043Z,90.01
2017-12-29T08:12:41.031Z,90.39
2017-12-29T08:13:41.013Z,90.58
2017-12-29T08:14:41.004Z,90.86
2017-12-29T08:15:40.991Z,90.58
2017-12-29T08:16:40.978Z,90.86
2017-12-29T08:17:40.964Z,90.86
2017-12-29T08:18:40.951Z,90.68
2017-12-29T08:19:40.936Z,91.24
2017-12-29T08:20:40.922Z,91.24
2017-12-29T08:21:40.912Z,91.86
2017-12-29T08:22:40.898Z,91.86
2017-12-29T08:23:40.888Z,92.14
2017-12-29T08:24:40.873Z,93.28
2017-12-29T08:25:40.861Z,92.71
2017-12-29T08:26:40.846Z,92.99
2017-12-29T08:27:40.832Z,93.66
2017-12-29T08:28:40.819Z,93.47
2017-12-29T08:29:40.807Z,93.28
2017-12-29T08:30:40.795Z,94.13
2017-12-29T08:31:40.787Z,94.32
2017-12-29T08:32:40.771Z,94.13
2017-12-29T08:33:40.758Z,94.42
2017-12-29T08:34:40.740Z,94.23
2017-12-29T08:35:40.732Z,93.94
2017-12-29T08:36:40.719Z,94.98
2017-12-29T08:37:40.709Z,95.07
2017-12-29T08:38:40.698Z,94.70
2017-12-29T08:39:40.688Z,94.46
2017-12-29T08:40:40.673Z,95.12
2017-12-29T08:41:40.654Z,94.60
2017-12-29T08:42:40.648Z,95.12
2017-12-29T08:43:40.635Z,96.16
2017-12-29T08:44:40.625Z,95.31
2017-12-29T08:45:40.616Z,96.07
2017-12-29T08:46:40.599Z,95.40
2017-12-29T08:47:40.587Z,95.21
2017-12-29T08:48:40.574Z,96.73
2017-12-29T08:49:40.562Z,96.73
2017-12-29T08:50:40.550Z,96.02
2017-12-29T08:51:40.540Z,96.50
2017-12-29T08:52:40.530Z,95.45
2017-12-29T08:53:40.518Z,96.78
2017-12-29T08:54:40.507Z,95.41
2017-12-29T08:55:40.497Z,95.60
2017-12-29T08:56:40.487Z,96.26
2017-12-29T08:57:40.476Z,95.22
2017-12-29T08:58:40.464Z,95.22
2017-12-29T08:59:40.454Z,96.12
2017-12-29T09:00:40.445Z,93.80
2017-12-29T09:01:40.435Z,94.08
2017-12-29T09:02:40.423Z,94.74
2017-12-29T09:03:40.411Z,93.89
2017-12-29T09:04:40.404Z,95.65
2017-12-29T09:05:40.396Z,93.37
2017-12-29T09:06:40.411Z,95.55
2017-12-29T09:07:40.378Z,94.04
2017-12-29T09:08:40.367Z,94.42
2017-12-29T09:09:40.357Z,94.51
2017-12-29T09:10:40.346Z,94.32
2017-12-29T09:11:40.342Z,93.94
2017-12-29T09:12:40.328Z,93.84
2017-12-29T09:13:40.324Z,92.80
2017-12-29T09:14:40.315Z,93.94
2017-12-29T09:15:40.332Z,93.84
2017-12-29T09:16:40.296Z,92.33
2017-12-29T09:17:40.282Z,94.42
2017-12-29T09:18:40.278Z,93.65
2017-12-29T09:19:40.270Z,93.13
2017-12-29T09:20:40.262Z,92.94
2017-12-29T09:21:40.255Z,94.65
2017-12-29T09:22:40.243Z,94.56
2017-12-29T09:23:40.238Z,93.99
2017-12-29T09:24:40.226Z,94.08
2017-12-29T09:25:40.224Z,94.46
2017-12-29T09:26:40.215Z,93.70
2017-12-29T09:27:40.228Z,95.41
2017-12-29T09:28:40.199Z,95.88
2017-12-29T09:29:40.200Z,95.60
2017-12-29T09:30:40.188Z,94.65
2017-12-29T09:31:40.171Z,93.75
2017-12-29T09:32:40.175Z,95.93
2017-12-29T09:33:40.163Z,94.89
2017-12-29T09:34:40.153Z,94.70
2017-12-29T09:35:40.147Z,94.04
2017-12-29T09:36:40.139Z,92.99
2017-12-29T09:37:40.128Z,93.08
2017-12-29T09:38:40.125Z,95.84
2017-12-29T09:39:40.120Z,94.04
2017-12-29T09:40:40.110Z,92.99
2017-12-29T09:41:40.101Z,93.56
2017-12-29T09:42:40.096Z,93.56
2017-12-29T09:43:40.099Z,94.32
2017-12-29T09:44:40.084Z,94.70
2017-12-29T09:45:40.092Z,92.04
2017-12-29T09:46:40.068Z,93.94
2017-12-29T09:47:40.061Z,93.13
2017-12-29T09:48:40.051Z,93.80
2017-12-29T09:49:40.051Z,92.47
2017-12-29T09:50:40.052Z,94.37
2017-12-29T09:51:40.035Z,92.57
2017-12-29T09:52:40.028Z,93.13
2017-12-29T09:53:40.021Z,92.09
2017-12-29T09:54:40.013Z,93.80
2017-12-29T09:55:40.007Z,92.66
2017-12-29T09:56:40.002Z,93.23
2017-12-29T09:57:39.996Z,93.32
2017-12-29T09:58:39.993Z,92.61
2017-12-29T09:59:39.983Z,89.96
2017-12-29T10:00:39.972Z,92.57
2017-12-29T10:01:40.029Z,92.94
2017-12-29T10:02:39.960Z,92.85
2017-12-29T10:03:39.953Z,91.14
2017-12-29T10:04:39.951Z,93.13
2017-12-29T10:05:39.952Z,93.70
2017-12-29T10:06:39.935Z,93.04
2017-12-29T10:07:39.926Z,92.18
2017-12-29T10:08:39.921Z,93.32
2017-12-29T10:09:39.914Z,91.80
2017-12-29T10:10:39.908Z,91.05
2017-12-29T10:11:39.896Z,92.57
2017-12-29T10:12:39.895Z,92.85
2017-12-29T10:13:39.887Z,93.04
2017-12-29T10:14:39.878Z,92.28
2017-12-29T10:15:39.874Z,91.80
2017-12-29T10:16:39.866Z,91.19
2017-12-29T10:17:39.856Z,92.90
2017-12-29T10:18:39.851Z,90.81
2017-12-29T10:19:39.847Z,90.81
2017-12-29T10:20:39.853Z,91.19
2017-12-29T10:21:39.830Z,90.67
2017-12-29T10:22:39.827Z,90.57
2017-12-29T10:23:39.818Z,92.38
2017-12-29T10:24:39.812Z,91.61
2017-12-29T10:25:39.808Z,88.10
2017-12-29T10:26:39.795Z,91.61
2017-12-29T10:27:39.795Z,91.80
2017-12-29T10:28:39.784Z,90.29
2017-12-29T10:29:39.792Z,90.86
2017-12-29T10:30:39.777Z,90.76
2017-12-29T10:31:39.778Z,90.10
2017-12-29T10:32:39.760Z,92.38
2017-12-29T10:33:39.762Z,91.71
2017-12-29T10:34:39.747Z,92.76
2017-12-29T10:35:39.742Z,91.52
2017-12-29T10:36:39.743Z,91.19
2017-12-29T10:37:39.767Z,92.04
2017-12-29T10:38:39.729Z,89.48
2017-12-29T10:39:39.719Z,91.56
2017-12-29T10:40:39.713Z,90.05
2017-12-29T10:41:39.728Z,90.24
2017-12-29T10:42:39.695Z,90.90
2017-12-29T10:43:39.690Z,90.19
2017-12-29T10:44:39.687Z,90.67
2017-12-29T10:45:39.683Z,91.28
2017-12-29T10:46:39.674Z,90.19
2017-12-29T10:47:39.666Z,89.72
2017-12-29T10:48:39.660Z,90.76
2017-12-29T10:49:39.656Z,91.33
2017-12-29T10:50:39.645Z,88.58
2017-12-29T10:51:39.639Z,92.76
2017-12-29T10:52:39.634Z,92.09
2017-12-29T10:53:39.627Z,89.91
2017-12-29T10:54:39.677Z,91.56
2017-12-29T10:55:39.616Z,91.56
2017-12-29T10:56:39.611Z,90.52
2017-12-29T10:57:39.600Z,89.43
2017-12-29T10:58:39.592Z,90.95
2017-12-29T10:59:39.586Z,91.47
2017-12-29T11:00:39.581Z,91.00
2017-12-29T11:01:39.572Z,90.38
2017-12-29T11:02:39.568Z,90.57
2017-12-29T11:03:39.557Z,90.71
2017-12-29T11:04:39.551Z,90.62
2017-12-29T11:05:39.545Z,89.10
2017-12-29T11:06:39.535Z,91.19
2017-12-29T11:07:39.531Z,91.75
2017-12-29T11:08:39.527Z,90.24
2017-12-29T11:09:39.515Z,89.48
2017-12-29T11:10:39.506Z,90.19
2017-12-29T11:11:39.498Z,89.43
2017-12-29T11:12:39.514Z,92.61
2017-12-29T11:13:39.486Z,91.56
2017-12-29T11:14:39.479Z,90.33
2017-12-29T11:15:39.473Z,91.09
2017-12-29T11:16:39.462Z,90.05
2017-12-29T11:17:39.461Z,90.33
2017-12-29T11:18:39.462Z,90.43
2017-12-29T11:19:39.442Z,90.81
2017-12-29T11:20:39.436Z,88.06
2017-12-29T11:21:39.430Z,90.05
2017-12-29T11:22:39.423Z,89.62
2017-12-29T11:23:39.413Z,87.15
2017-12-29T11:24:39.409Z,90.28
2017-12-29T11:25:39.405Z,88.76
2017-12-29T11:26:39.396Z,87.72
2017-12-29T11:27:39.388Z,88.01
2017-12-29T11:28:39.395Z,86.49
2017-12-29T11:29:39.381Z,86.58
2017-12-29T11:30:39.369Z,87.24
2017-12-29T11:31:39.362Z,86.77
2017-12-29T11:32:39.367Z,85.35
2017-12-29T11:33:39.420Z,86.49
2017-12-29T11:34:39.344Z,86.68
2017-12-29T11:35:39.340Z,85.25
2017-12-29T11:36:39.329Z,85.44
2017-12-29T11:37:39.328Z,86.35
2017-12-29T11:38:39.314Z,87.11
2017-12-29T11:39:39.313Z,86.63
2017-12-29T11:40:39.313Z,87.11
2017-12-29T11:41:39.299Z,87.39
2017-12-29T11:42:39.293Z,88.06
2017-12-29T11:43:39.286Z,86.82
2017-12-29T11:44:39.283Z,87.77
2017-12-29T11:45:39.273Z,87.11
2017-12-29T11:46:39.267Z,87.11
2017-12-29T11:47:39.263Z,87.96
2017-12-29T11:48:39.253Z,87.20
2017-12-29T11:49:39.246Z,88.91
2017-12-29T11:50:39.259Z,87.58
2017-12-29T11:51:39.232Z,88.34
2017-12-29T11:52:39.230Z,88.15
2017-12-29T11:53:39.223Z,87.58
2017-12-29T11:54:39.209Z,87.39
2017-12-29T11:55:39.206Z,88.43
2017-12-29T11:56:39.195Z,88.06
2017-12-29T11:57:39.188Z,88.72
2017-12-29T11:58:39.177Z,87.82
2017-12-29T11:59:39.167Z,87.35
2017-12-29T12:00:39.166Z,87.25
2017-12-29T12:01:39.156Z,88.58
2017-12-29T12:02:39.148Z,88.53
2017-12-29T12:03:39.141Z,88.81
2017-12-29T12:04:39.136Z,88.62
2017-12-29T12:05:39.165Z,89.10
2017-12-29T12:06:39.115Z,88.06
2017-12-29T12:07:39.148Z,87.92
2017-12-29T12:08:39.098Z,87.96
2017-12-29T12:09:39.102Z,86.68
2017-12-29T12:10:39.082Z,88.96
2017-12-29T12:11:39.073Z,88.01
2017-12-29T12:12:39.062Z,88.39
2017-12-29T12:13:39.055Z,89.43
2017-12-29T12:14:39.065Z,90.10
2017-12-29T12:15:39.048Z,89.53
2017-12-29T12:16:39.029Z,89.34
2017-12-29T12:17:39.042Z,88.10
2017-12-29T12:18:39.010Z,88.87
2017-12-29T12:19:39.001Z,88.96
2017-12-29T12:20:38.989Z,89.81
2017-12-29T12:21:38.980Z,89.06
2017-12-29T12:22:38.974Z,88.58
2017-12-29T12:23:38.964Z,89.72
2017-12-29T12:24:38.956Z,89.53
2017-12-29T12:25:38.947Z,89.25
2017-12-29T12:26:38.937Z,89.15
2017-12-29T12:27:38.926Z,87.82
2017-12-29T12:28:38.918Z,87.82
2017-12-29T12:29:38.911Z,88.77
2017-12-29T12:30:38.901Z,88.62
2017-12-29T12:31:38.890Z,88.39
2017-12-29T12:32:38.882Z,88.39
2017-12-29T12:33:38.874Z,88.20
2017-12-29T12:34:38.861Z,87.87
2017-12-29T12:35:38.855Z,88.20
2017-12-29T12:36:38.844Z,88.15
2017-12-29T12:37:38.834Z,88.20
2017-12-29T12:38:39.555Z,87.73
2017-12-29T12:39:38.815Z,88.68
2017-12-29T12:40:38.802Z,88.20
2017-12-29T12:41:38.795Z,88.01
2017-12-29T12:42:38.793Z,88.48
2017-12-29T12:43:38.816Z,88.48
2017-12-29T12:44:38.769Z,88.39
2017-12-29T12:45:38.855Z,88.20
2017-12-29T12:46:38.749Z,88.01
2017-12-29T12:47:38.743Z,88.87
2017-12-29T12:48:38.728Z,89.25
2017-12-29T12:49:38.720Z,88.48
2017-12-29T12:50:38.712Z,89.29
2017-12-29T12:51:38.702Z,88.87
2017-12-29T12:52:38.694Z,89.15